createdAt,value
2017-05-06T00:01:11.466Z,17.84
2017-05-06T00:02:23.967Z,17.79
2017-05-06T00:03:36.752Z,17.87
2017-05-06T00:04:49.531Z,17.87
2017-05-06T00:06:02.309Z,17.79
2017-05-06T00:07:14.603Z,17.73
2017-05-06T00:08:26.903Z,17.74
2017-05-06T00:09:39.208Z,17.57
2017-05-06T00:10:51.995Z,17.57
2017-05-06T00:12:04.776Z,17.57
2017-05-06T00:13:17.752Z,17.53
2017-05-06T00:14:30.533Z,17.45
2017-05-06T00:16:27.310Z,17.36
2017-05-06T00:17:39.608Z,17.35
2017-05-06T00:18:52.399Z,17.3
2017-05-06T00:20:05.184Z,17.33
2017-05-06T00:21:17.965Z,17.45
2017-05-06T00:22:30.265Z,17.38
2017-05-06T00:23:43.046Z,17.42
2017-05-06T00:24:55.849Z,17.35
2017-05-06T00:26:08.628Z,17.32
2017-05-06T00:27:20.937Z,17.39
2017-05-06T00:28:33.243Z,17.35
2017-05-06T00:29:46.031Z,17.38
2017-05-06T00:30:58.811Z,17.38
2017-05-06T00:32:10.146Z,17.39
2017-05-06T00:33:22.443Z,17.38
2017-05-06T00:34:34.942Z,17.49
2017-05-06T00:35:47.262Z,17.49
2017-05-06T00:37:00.043Z,17.49
2017-05-06T00:38:11.861Z,17.47
2017-05-06T00:39:24.220Z,17.53
2017-05-06T00:40:37.011Z,17.47
2017-05-06T00:41:49.801Z,17.47
2017-05-06T00:43:02.578Z,17.4
2017-05-06T00:44:15.359Z,17.43
2017-05-06T00:45:28.144Z,17.45
2017-05-06T00:46:40.449Z,17.49
2017-05-06T00:47:52.752Z,17.47
2017-05-06T00:49:05.533Z,17.46
2017-05-06T00:50:18.513Z,17.46
2017-05-06T00:51:31.298Z,17.51
2017-05-06T00:52:44.078Z,17.46
2017-05-06T00:53:56.861Z,17.47
2017-05-06T00:55:09.647Z,17.38
2017-05-06T00:56:22.428Z,17.45
2017-05-06T00:57:34.249Z,17.45
2017-05-06T00:58:46.550Z,17.62
2017-05-06T00:59:58.850Z,17.57
2017-05-06T01:01:11.830Z,17.68
2017-05-06T01:02:24.130Z,17.71
2017-05-06T01:03:36.908Z,17.73
2017-05-06T01:04:49.688Z,17.71
2017-05-06T01:06:02.466Z,17.86
2017-05-06T01:07:14.765Z,17.68
2017-05-06T01:08:27.544Z,17.83
2017-05-06T01:09:40.333Z,17.94
2017-05-06T01:10:53.112Z,17.84
2017-05-06T01:12:05.889Z,17.8
2017-05-06T01:13:17.704Z,17.86
2017-05-06T01:14:30.490Z,17.87
2017-05-06T01:15:43.272Z,17.94
2017-05-06T01:16:56.050Z,17.87
2017-05-06T01:18:08.834Z,18.01
2017-05-06T01:19:21.620Z,17.87
2017-05-06T01:20:33.918Z,17.83
2017-05-06T01:21:46.697Z,17.77
2017-05-06T01:22:59.676Z,17.71
2017-05-06T01:24:12.463Z,17.62
2017-05-06T01:25:25.276Z,17.65
2017-05-06T01:26:38.059Z,17.58
2017-05-06T01:27:50.847Z,17.73
2017-05-06T01:29:03.638Z,17.63
2017-05-06T01:30:16.434Z,17.62
2017-05-06T01:31:29.227Z,17.68
2017-05-06T01:32:41.537Z,17.73
2017-05-06T01:33:54.327Z,17.71
2017-05-06T01:35:07.104Z,17.55
2017-05-06T01:36:19.889Z,17.55
2017-05-06T01:37:32.672Z,17.63
2017-05-06T01:38:45.474Z,17.65
2017-05-06T01:39:58.277Z,17.57
2017-05-06T01:41:11.082Z,17.57
2017-05-06T01:42:23.924Z,17.53
2017-05-06T01:43:36.731Z,17.46
2017-05-06T01:44:49.059Z,17.55
2017-05-06T01:46:01.865Z,17.47
2017-05-06T01:47:14.662Z,17.51
2017-05-06T01:48:27.540Z,17.47
2017-05-06T01:49:39.932Z,17.45
2017-05-06T01:50:52.959Z,17.36
2017-05-06T01:52:05.762Z,17.39
2017-05-06T01:53:17.597Z,17.38
2017-05-06T01:54:30.404Z,17.27
2017-05-06T01:55:43.243Z,17.32
2017-05-06T01:56:56.238Z,17.39
2017-05-06T01:58:09.114Z,17.43
2017-05-06T01:59:21.933Z,17.43
2017-05-06T02:00:34.254Z,17.46
2017-05-06T02:01:47.067Z,17.39
2017-05-06T02:02:59.867Z,17.39
2017-05-06T02:04:12.655Z,17.42
2017-05-06T02:05:24.971Z,17.43
2017-05-06T02:06:37.953Z,17.51
2017-05-06T02:07:50.734Z,17.54
2017-05-06T02:09:03.515Z,17.55
2017-05-06T02:10:16.303Z,17.68
2017-05-06T02:11:29.093Z,17.71
2017-05-06T02:12:41.594Z,17.68
2017-05-06T02:13:54.379Z,17.73
2017-05-06T02:15:06.689Z,17.84
2017-05-06T02:16:19.001Z,17.86
2017-05-06T02:17:31.308Z,17.83
2017-05-06T02:18:43.615Z,17.7
2017-05-06T02:19:56.409Z,17.73
2017-05-06T02:21:09.202Z,17.84
2017-05-06T02:22:21.987Z,17.89
2017-05-06T02:23:34.493Z,17.81
2017-05-06T02:24:47.276Z,18.02
2017-05-06T02:26:00.066Z,17.79
2017-05-06T02:27:12.853Z,17.77
2017-05-06T02:28:25.151Z,17.73
2017-05-06T02:29:37.950Z,17.77
2017-05-06T02:30:50.775Z,17.73
2017-05-06T02:32:03.566Z,17.74
2017-05-06T02:33:15.871Z,17.7
2017-05-06T02:34:28.850Z,17.71
2017-05-06T02:35:41.652Z,17.79
2017-05-06T02:36:54.442Z,17.86
2017-05-06T02:38:07.222Z,17.7
2017-05-06T02:39:19.532Z,17.7
2017-05-06T02:40:32.315Z,17.7
2017-05-06T02:41:44.625Z,17.71
2017-05-06T02:42:57.416Z,17.74
2017-05-06T02:44:10.199Z,17.7
2017-05-06T02:45:23.195Z,17.76
2017-05-06T02:46:35.989Z,17.77
2017-05-06T02:47:48.784Z,17.73
2017-05-06T02:49:01.574Z,17.77
2017-05-06T02:50:13.599Z,17.92
2017-05-06T02:51:26.395Z,17.8
2017-05-06T02:52:39.186Z,17.92
2017-05-06T02:53:51.487Z,17.87
2017-05-06T02:55:04.276Z,17.91
2017-05-06T02:56:17.061Z,17.94
2017-05-06T02:57:29.854Z,17.99
2017-05-06T02:58:42.650Z,17.92
2017-05-06T02:59:54.949Z,17.94
2017-05-06T03:01:07.743Z,18.02
2017-05-06T03:02:20.057Z,18.02
2017-05-06T03:03:32.859Z,18.01
2017-05-06T03:04:45.646Z,17.99
2017-05-06T03:05:57.976Z,18.01
2017-05-06T03:07:10.760Z,17.92
2017-05-06T03:08:23.056Z,17.92
2017-05-06T03:09:35.834Z,17.87
2017-05-06T03:10:48.612Z,18.02
2017-05-06T03:12:01.394Z,17.87
2017-05-06T03:13:14.184Z,17.96
2017-05-06T03:14:26.005Z,18.02
2017-05-06T03:15:38.784Z,17.83
2017-05-06T03:16:51.086Z,17.87
2017-05-06T03:18:03.870Z,17.86
2017-05-06T03:19:16.168Z,17.76
2017-05-06T03:20:28.470Z,17.8
2017-05-06T03:21:40.771Z,17.84
2017-05-06T03:22:53.551Z,17.96
2017-05-06T03:24:05.852Z,17.87
2017-05-06T03:25:18.204Z,17.86
2017-05-06T03:26:30.503Z,17.91
2017-05-06T03:27:42.812Z,17.77
2017-05-06T03:28:55.588Z,17.58
2017-05-06T03:30:08.365Z,17.57
2017-05-06T03:31:21.138Z,17.46
2017-05-06T03:32:33.914Z,17.53
2017-05-06T03:33:46.901Z,17.46
2017-05-06T03:34:59.685Z,17.45
2017-05-06T03:36:12.459Z,17.49
2017-05-06T03:37:24.760Z,17.47
2017-05-06T03:38:37.536Z,17.51
2017-05-06T03:39:50.321Z,17.57
2017-05-06T03:41:03.102Z,17.55
2017-05-06T03:42:15.401Z,17.55
2017-05-06T03:43:27.233Z,17.53
2017-05-06T03:44:40.012Z,17.38
2017-05-06T03:45:52.794Z,17.38
2017-05-06T03:47:05.570Z,17.36
2017-05-06T03:48:17.887Z,17.3
2017-05-06T03:49:30.673Z,17.35
2017-05-06T03:50:42.973Z,17.35
2017-05-06T03:51:55.272Z,17.28
2017-05-06T03:53:08.052Z,17.2
2017-05-06T03:54:19.880Z,17.18
2017-05-06T03:55:32.668Z,17.15
2017-05-06T03:56:45.447Z,17.1
2017-05-06T03:57:58.228Z,17.14
2017-05-06T03:59:10.530Z,17.21
2017-05-06T04:00:22.832Z,17.21
2017-05-06T04:01:35.610Z,17.25
2017-05-06T04:02:48.396Z,17.27
2017-05-06T04:04:01.187Z,17.22
2017-05-06T04:05:13.482Z,17.33
2017-05-06T04:06:25.778Z,17.35
2017-05-06T04:07:38.554Z,17.46
2017-05-06T04:08:51.334Z,17.46
2017-05-06T04:10:04.120Z,17.53
2017-05-06T04:11:16.417Z,17.53
2017-05-06T04:12:29.400Z,17.43
2017-05-06T04:13:42.183Z,17.46
2017-05-06T04:14:54.960Z,17.46
2017-05-06T04:16:07.737Z,17.47
2017-05-06T04:17:19.850Z,17.46
2017-05-06T04:18:32.628Z,17.51
2017-05-06T04:19:44.928Z,17.45
2017-05-06T04:20:57.709Z,17.43
2017-05-06T04:22:10.007Z,17.28
2017-05-06T04:23:22.989Z,17.25
2017-05-06T04:24:35.767Z,17.17
2017-05-06T04:25:48.548Z,17.21
2017-05-06T04:27:00.843Z,17.22
2017-05-06T04:28:12.478Z,17.14
2017-05-06T04:29:24.780Z,17.07
2017-05-06T04:30:37.558Z,17.1
2017-05-06T04:31:50.337Z,17.1
2017-05-06T04:33:03.118Z,17.06
2017-05-06T04:34:16.105Z,17.14
2017-05-06T04:35:28.890Z,17.07
2017-05-06T04:36:41.666Z,17.17
2017-05-06T04:37:54.449Z,17.17
2017-05-06T04:39:06.748Z,17.15
2017-05-06T04:40:19.530Z,17.15
2017-05-06T04:41:32.304Z,17.03
2017-05-06T04:42:45.084Z,16.98
2017-05-06T04:43:57.870Z,16.88
2017-05-06T04:45:10.650Z,16.84
2017-05-06T04:46:23.425Z,16.92
2017-05-06T04:47:36.203Z,16.91
2017-05-06T04:48:48.987Z,16.95
2017-05-06T04:50:01.764Z,16.98
2017-05-06T04:51:14.542Z,16.95
2017-05-06T04:52:27.319Z,17.02
2017-05-06T04:53:40.107Z,17.07
2017-05-06T04:54:52.890Z,17.03
2017-05-06T04:56:05.871Z,17.07
2017-05-06T04:57:17.682Z,17.18
2017-05-06T04:58:30.460Z,17.15
2017-05-06T04:59:43.245Z,17
2017-05-06T05:00:56.029Z,17.15
2017-05-06T05:02:08.810Z,17.15
2017-05-06T05:03:20.628Z,17.17
2017-05-06T05:04:32.930Z,17.2
2017-05-06T05:05:45.704Z,17.2
2017-05-06T05:06:58.481Z,17.18
2017-05-06T05:08:11.261Z,17.18
2017-05-06T05:09:23.557Z,17.12
2017-05-06T05:10:36.337Z,17.15
2017-05-06T05:11:49.123Z,17
2017-05-06T05:13:01.901Z,17.06
2017-05-06T05:14:14.680Z,17.1
2017-05-06T05:15:27.461Z,17
2017-05-06T05:16:40.242Z,17.02
2017-05-06T05:17:53.225Z,17.12
2017-05-06T05:19:06.010Z,17.2
2017-05-06T05:20:17.822Z,17.1
2017-05-06T05:21:29.641Z,17.2
2017-05-06T05:22:42.720Z,17.18
2017-05-06T05:23:55.520Z,17.27
2017-05-06T05:25:07.816Z,17.3
2017-05-06T05:26:20.593Z,17.43
2017-05-06T05:27:33.397Z,17.39
2017-05-06T05:28:46.386Z,17.32
2017-05-06T05:29:59.172Z,17.35
2017-05-06T05:31:11.949Z,17.42
2017-05-06T05:32:24.730Z,17.39
2017-05-06T05:33:37.326Z,17.46
2017-05-06T05:34:50.109Z,17.42
2017-05-06T05:36:02.410Z,17.49
2017-05-06T05:37:14.707Z,17.47
2017-05-06T05:38:27.486Z,17.47
2017-05-06T05:39:40.267Z,17.36
2017-05-06T05:40:53.049Z,17.43
2017-05-06T05:42:05.350Z,17.45
2017-05-06T05:43:17.657Z,17.47
2017-05-06T05:44:30.155Z,17.43
2017-05-06T05:45:42.932Z,17.45
2017-05-06T05:46:55.712Z,17.45
2017-05-06T05:48:08.013Z,17.46
2017-05-06T05:49:20.795Z,17.43
2017-05-06T05:50:33.874Z,17.49
2017-05-06T05:51:46.657Z,17.51
2017-05-06T05:52:59.441Z,17.51
2017-05-06T05:54:12.218Z,17.51
2017-05-06T05:55:24.523Z,17.49
2017-05-06T05:56:37.304Z,17.43
2017-05-06T05:57:50.086Z,17.47
2017-05-06T05:59:02.390Z,17.47
2017-05-06T06:00:15.172Z,17.51
2017-05-06T06:01:27.951Z,17.51
2017-05-06T06:02:40.733Z,17.49
2017-05-06T06:03:53.515Z,17.54
2017-05-06T06:05:05.807Z,17.46
2017-05-06T06:06:18.590Z,17.47
2017-05-06T06:07:31.372Z,17.49
2017-05-06T06:08:44.151Z,17.42
2017-05-06T06:09:56.936Z,17.47
2017-05-06T06:11:09.233Z,17.49
2017-05-06T06:12:22.312Z,17.49
2017-05-06T06:13:35.091Z,17.49
2017-05-06T06:14:47.874Z,17.55
2017-05-06T06:16:00.656Z,17.53
2017-05-06T06:17:13.437Z,17.54
2017-05-06T06:18:26.214Z,17.6
2017-05-06T06:19:38.991Z,17.6
2017-05-06T06:20:51.773Z,17.57
2017-05-06T06:22:04.551Z,17.55
2017-05-06T06:23:17.360Z,17.57
2017-05-06T06:24:29.669Z,17.58
2017-05-06T06:25:42.446Z,17.62
2017-05-06T06:26:54.743Z,17.63
2017-05-06T06:28:07.517Z,17.53
2017-05-06T06:29:20.297Z,17.53
2017-05-06T06:30:33.077Z,17.53
2017-05-06T06:31:45.857Z,17.43
2017-05-06T06:32:58.634Z,17.51
2017-05-06T06:34:11.411Z,17.42
2017-05-06T06:35:24.187Z,17.43
2017-05-06T06:36:36.492Z,17.47
2017-05-06T06:37:49.276Z,17.51
2017-05-06T06:39:02.056Z,17.47
2017-05-06T06:40:14.353Z,17.54
2017-05-06T06:41:27.131Z,17.55
2017-05-06T06:42:39.427Z,17.63
2017-05-06T06:43:52.208Z,17.58
2017-05-06T06:45:05.185Z,17.6
2017-05-06T06:46:17.482Z,17.66
2017-05-06T06:47:30.263Z,17.53
2017-05-06T06:48:43.039Z,17.51
2017-05-06T06:49:55.540Z,17.43
2017-05-06T06:51:08.321Z,17.45
2017-05-06T06:52:20.620Z,17.49
2017-05-06T06:53:32.434Z,17.45
2017-05-06T06:54:45.211Z,17.45
2017-05-06T06:55:57.990Z,17.45
2017-05-06T06:57:10.769Z,17.4
2017-05-06T06:58:23.550Z,17.4
2017-05-06T06:59:36.334Z,17.46
2017-05-06T07:00:49.116Z,17.49
2017-05-06T07:02:01.898Z,17.47
2017-05-06T07:03:14.674Z,17.54
2017-05-06T07:04:26.969Z,17.47
2017-05-06T07:05:39.754Z,17.54
2017-05-06T07:06:52.735Z,17.45
2017-05-06T07:08:04.550Z,17.46
2017-05-06T07:09:16.847Z,17.47
2017-05-06T07:10:29.622Z,17.43
2017-05-06T07:11:42.602Z,17.42
2017-05-06T07:12:55.380Z,17.4
2017-05-06T07:14:08.155Z,17.35
2017-05-06T07:15:19.491Z,17.36
2017-05-06T07:16:31.791Z,17.38
2017-05-06T07:17:44.568Z,17.42
2017-05-06T07:18:57.368Z,17.36
2017-05-06T07:20:10.149Z,17.45
2017-05-06T07:21:22.450Z,17.42
2017-05-06T07:22:35.527Z,17.42
2017-05-06T07:23:48.312Z,17.35
2017-05-06T07:25:01.097Z,17.4
2017-05-06T07:26:13.400Z,17.35
2017-05-06T07:27:25.694Z,17.28
2017-05-06T07:28:37.992Z,17.33
2017-05-06T07:29:50.771Z,17.33
2017-05-06T07:31:03.548Z,17.35
2017-05-06T07:32:16.324Z,17.28
2017-05-06T07:33:28.826Z,17.3
2017-05-06T07:34:41.603Z,17.36
2017-05-06T07:35:54.385Z,17.2
2017-05-06T07:37:06.686Z,17.33
2017-05-06T07:38:19.467Z,17.24
2017-05-06T07:39:32.256Z,17.28
2017-05-06T07:40:44.573Z,17.3
2017-05-06T07:41:57.369Z,17.32
2017-05-06T07:43:09.670Z,17.28
2017-05-06T07:44:22.752Z,17.25
2017-05-06T07:45:35.058Z,17.35
2017-05-06T07:46:47.368Z,17.38
2017-05-06T07:47:59.665Z,17.46
2017-05-06T07:49:12.451Z,17.45
2017-05-06T07:50:25.229Z,17.42
2017-05-06T07:51:38.026Z,17.43
2017-05-06T07:52:50.840Z,17.38
2017-05-06T07:54:03.140Z,17.39
2017-05-06T07:55:15.453Z,17.39
2017-05-06T07:56:28.242Z,17.33
2017-05-06T07:57:41.036Z,17.39
2017-05-06T07:58:53.822Z,17.36
2017-05-06T08:00:06.126Z,17.36
2017-05-06T08:01:18.926Z,17.35
2017-05-06T08:02:31.713Z,17.28
2017-05-06T08:03:44.494Z,17.3
2017-05-06T08:04:57.273Z,17.35
2017-05-06T08:06:09.575Z,17.35
2017-05-06T08:07:21.426Z,17.36
2017-05-06T08:08:34.211Z,17.33
2017-05-06T08:09:46.514Z,17.35
2017-05-06T08:10:59.308Z,17.33
2017-05-06T08:12:12.105Z,17.4
2017-05-06T08:13:24.419Z,17.43
2017-05-06T08:14:37.228Z,17.33
2017-05-06T08:15:50.011Z,17.28
2017-05-06T08:17:03.007Z,17.42
2017-05-06T08:18:15.315Z,17.36
2017-05-06T08:19:28.098Z,17.38
2017-05-06T08:20:40.430Z,17.43
2017-05-06T08:21:53.209Z,17.45
2017-05-06T08:23:05.988Z,17.51
2017-05-06T08:24:18.777Z,17.51
2017-05-06T08:25:31.564Z,17.46
2017-05-06T08:26:44.379Z,17.32
2017-05-06T08:27:57.367Z,17.22
2017-05-06T08:29:10.144Z,17.14
2017-05-06T08:30:22.447Z,17.1
2017-05-06T08:31:35.227Z,17.17
2017-05-06T08:32:48.004Z,17
2017-05-06T08:34:00.301Z,17.12
2017-05-06T08:35:13.076Z,17.06
2017-05-06T08:36:25.375Z,17.09
2017-05-06T08:37:38.155Z,17.15
2017-05-06T08:38:51.238Z,17.17
2017-05-06T08:40:04.019Z,17.15
2017-05-06T08:41:16.322Z,17.32
2017-05-06T08:42:28.621Z,17.35
2017-05-06T08:43:40.915Z,17.32
2017-05-06T08:44:53.693Z,17.43
2017-05-06T08:46:05.993Z,17.43
2017-05-06T08:47:18.771Z,17.53
2017-05-06T08:48:31.559Z,17.47
2017-05-06T08:49:43.855Z,17.47
2017-05-06T08:50:56.635Z,17.51
2017-05-06T08:52:09.411Z,17.45
2017-05-06T08:53:21.724Z,17.46
2017-05-06T08:54:33.536Z,17.4
2017-05-06T08:55:46.319Z,17.46
2017-05-06T08:56:59.095Z,17.51
2017-05-06T08:58:11.401Z,17.47
2017-05-06T08:59:24.195Z,17.47
2017-05-06T09:00:36.696Z,17.46
2017-05-06T09:01:49.475Z,17.53
2017-05-06T09:03:02.258Z,17.54
2017-05-06T09:04:14.559Z,17.49
2017-05-06T09:05:27.370Z,17.54
2017-05-06T09:06:40.155Z,17.54
2017-05-06T09:07:52.941Z,17.54
2017-05-06T09:09:05.739Z,17.55
2017-05-06T09:10:18.530Z,17.57
2017-05-06T09:11:31.529Z,17.57
2017-05-06T09:12:44.317Z,17.62
2017-05-06T09:13:57.106Z,17.57
2017-05-06T09:15:09.892Z,17.57
2017-05-06T09:16:21.714Z,17.49
2017-05-06T09:17:34.024Z,17.47
2017-05-06T09:18:46.810Z,17.43
2017-05-06T09:19:59.598Z,17.45
2017-05-06T09:21:11.914Z,17.32
2017-05-06T09:22:24.705Z,17.36
2017-05-06T09:23:37.013Z,17.38
2017-05-06T09:24:49.794Z,17.46
2017-05-06T09:26:02.586Z,17.46
2017-05-06T09:27:14.411Z,17.32
2017-05-06T09:28:27.211Z,17.28
2017-05-06T09:29:39.541Z,17.3
2017-05-06T09:30:52.328Z,17.4
2017-05-06T09:32:05.151Z,17.43
2017-05-06T09:33:17.485Z,17.43
2017-05-06T09:34:30.268Z,17.54
2017-05-06T09:35:42.575Z,17.53
2017-05-06T09:36:55.391Z,17.58
2017-05-06T09:38:08.188Z,17.62
2017-05-06T09:39:20.696Z,17.63
2017-05-06T09:40:33.488Z,17.63
2017-05-06T09:41:46.284Z,17.63
2017-05-06T09:42:59.077Z,17.54
2017-05-06T09:44:12.060Z,17.53
2017-05-06T09:45:24.368Z,17.46
2017-05-06T09:46:37.157Z,17.43
2017-05-06T09:47:49.483Z,17.45
2017-05-06T09:49:02.267Z,17.46
2017-05-06T09:50:15.061Z,17.46
2017-05-06T09:51:27.852Z,17.49
2017-05-06T09:52:40.645Z,17.49
2017-05-06T09:53:53.434Z,17.45
2017-05-06T09:55:06.229Z,17.53
2017-05-06T09:56:18.538Z,17.63
2017-05-06T09:57:30.854Z,17.6
2017-05-06T09:58:43.647Z,17.66
2017-05-06T09:59:56.436Z,17.57
2017-05-06T10:01:09.229Z,17.57
2017-05-06T10:02:22.016Z,17.49
2017-05-06T10:03:34.820Z,17.43
2017-05-06T10:04:47.125Z,17.38
2017-05-06T10:05:59.912Z,17.3
2017-05-06T10:07:12.227Z,17.32
2017-05-06T10:08:24.534Z,17.24
2017-05-06T10:09:37.324Z,17.27
2017-05-06T10:10:50.104Z,17.27
2017-05-06T10:12:03.185Z,17.22
2017-05-06T10:13:15.971Z,17.27
2017-05-06T10:14:28.753Z,17.33
2017-05-06T10:15:41.529Z,17.28
2017-05-06T10:16:54.513Z,17.3
2017-05-06T10:18:07.291Z,17.17
2017-05-06T10:19:20.083Z,17.18
2017-05-06T10:20:32.866Z,17.25
2017-05-06T10:21:45.164Z,17.28
2017-05-06T10:22:57.948Z,17.38
2017-05-06T10:24:10.249Z,17.2
2017-05-06T10:25:23.040Z,17.18
2017-05-06T10:26:35.818Z,17.24
2017-05-06T10:27:48.636Z,17.24
2017-05-06T10:29:00.942Z,17.22
2017-05-06T10:30:13.240Z,17.14
2017-05-06T10:31:25.542Z,17.21
2017-05-06T10:32:38.323Z,17.17
2017-05-06T10:33:51.118Z,17.22
2017-05-06T10:35:03.918Z,17.18
2017-05-06T10:36:16.697Z,17.3
2017-05-06T10:37:29.478Z,17.17
2017-05-06T10:38:42.261Z,17.28
2017-05-06T10:39:55.065Z,17.32
2017-05-06T10:41:07.847Z,17.32
2017-05-06T10:42:20.148Z,17.35
2017-05-06T10:43:32.931Z,17.33
2017-05-06T10:44:45.432Z,17.33
2017-05-06T10:45:58.213Z,17.35
2017-05-06T10:47:10.990Z,17.21
2017-05-06T10:48:23.780Z,17.32
2017-05-06T10:49:36.566Z,17.33
2017-05-06T10:50:49.348Z,17.33
2017-05-06T10:52:02.126Z,17.36
2017-05-06T10:53:14.428Z,17.47
2017-05-06T10:54:26.737Z,17.47
2017-05-06T10:55:39.521Z,17.45
2017-05-06T10:56:52.305Z,17.49
2017-05-06T10:58:05.083Z,17.51
2017-05-06T10:59:17.390Z,17.54
2017-05-06T11:00:30.377Z,17.46
2017-05-06T11:01:42.674Z,17.55
2017-05-06T11:02:55.453Z,17.7
2017-05-06T11:04:08.234Z,17.66
2017-05-06T11:05:21.029Z,17.73
2017-05-06T11:06:33.815Z,17.68
2017-05-06T11:07:46.596Z,17.89
2017-05-06T11:08:59.378Z,17.81
2017-05-06T11:10:12.168Z,17.87
2017-05-06T11:11:24.961Z,17.84
2017-05-06T11:12:37.742Z,17.87
2017-05-06T11:13:50.040Z,17.87
2017-05-06T11:15:02.835Z,18.01
2017-05-06T11:16:15.146Z,18.02
2017-05-06T11:17:27.680Z,18.09
2017-05-06T11:18:40.460Z,18.14
2017-05-06T11:19:53.253Z,18.14
2017-05-06T11:21:06.048Z,18.11
2017-05-06T11:22:17.868Z,18.2
2017-05-06T11:23:30.649Z,18.2
2017-05-06T11:24:43.426Z,18.31
2017-05-06T11:25:55.727Z,18.38
2017-05-06T11:27:08.511Z,18.32
2017-05-06T11:28:21.492Z,18.39
2017-05-06T11:29:33.796Z,18.31
2017-05-06T11:30:46.095Z,18.36
2017-05-06T11:31:58.875Z,18.35
2017-05-06T11:33:11.858Z,18.46
2017-05-06T11:34:24.641Z,18.41
2017-05-06T11:35:37.424Z,18.44
2017-05-06T11:36:50.207Z,18.54
2017-05-06T11:38:02.998Z,18.59
2017-05-06T11:39:15.779Z,18.51
2017-05-06T11:40:28.080Z,18.54
2017-05-06T11:41:40.861Z,18.62
2017-05-06T11:42:53.164Z,18.68
2017-05-06T11:44:06.150Z,18.68
2017-05-06T11:45:18.942Z,18.78
2017-05-06T11:46:31.241Z,18.79
2017-05-06T11:47:44.024Z,18.76
2017-05-06T11:48:56.804Z,18.68
2017-05-06T11:50:09.585Z,18.69
2017-05-06T11:51:22.365Z,18.66
2017-05-06T11:52:35.146Z,18.72
2017-05-06T11:53:47.465Z,18.66
2017-05-06T11:55:00.252Z,18.65
2017-05-06T11:56:12.067Z,18.72
2017-05-06T11:57:24.846Z,18.62
2017-05-06T11:58:37.147Z,18.78
2017-05-06T11:59:49.928Z,18.71
2017-05-06T12:01:02.921Z,18.78
2017-05-06T12:02:14.736Z,18.79
2017-05-06T12:03:27.547Z,18.76
2017-05-06T12:04:40.325Z,18.84
2017-05-06T12:05:52.630Z,18.89
2017-05-06T12:07:05.424Z,19.02
2017-05-06T12:08:18.209Z,19.15
2017-05-06T12:09:30.988Z,19.15
2017-05-06T12:10:43.294Z,19.35
2017-05-06T12:11:56.086Z,19.46
2017-05-06T12:13:08.882Z,19.55
2017-05-06T12:14:21.665Z,19.62
2017-05-06T12:15:34.449Z,19.64
2017-05-06T12:16:47.452Z,19.8
2017-05-06T12:18:00.247Z,19.79
2017-05-06T12:19:12.541Z,19.98
2017-05-06T12:20:25.321Z,20.04
2017-05-06T12:21:37.622Z,20.16
2017-05-06T12:22:50.421Z,20.13
2017-05-06T12:24:03.211Z,20.22
2017-05-06T12:25:15.995Z,20.37
2017-05-06T12:26:28.311Z,20.35
2017-05-06T12:27:41.101Z,20.37
2017-05-06T12:28:53.907Z,20.19
2017-05-06T12:30:06.689Z,20.34
2017-05-06T12:31:18.994Z,20.16
2017-05-06T12:32:31.789Z,20.16
2017-05-06T12:33:44.577Z,20.16
2017-05-06T12:34:57.358Z,20.17
2017-05-06T12:36:09.180Z,20.15
2017-05-06T12:37:21.964Z,20.15
2017-05-06T12:38:34.277Z,20.15
2017-05-06T12:39:46.586Z,20.12
2017-05-06T12:40:59.371Z,20.12
2017-05-06T12:42:11.686Z,20.07
2017-05-06T12:43:24.497Z,20.01
2017-05-06T12:44:37.009Z,20.05
2017-05-06T12:45:48.831Z,19.94
2017-05-06T12:47:01.622Z,19.94
2017-05-06T12:48:13.932Z,19.83
2017-05-06T12:49:27.033Z,19.85
2017-05-06T12:50:39.334Z,19.87
2017-05-06T12:51:52.119Z,19.82
2017-05-06T12:53:04.905Z,19.95
2017-05-06T12:54:17.688Z,19.95
2017-05-06T12:55:30.670Z,19.89
2017-05-06T12:56:43.449Z,19.9
2017-05-06T12:57:56.237Z,19.97
2017-05-06T12:59:09.034Z,19.79
2017-05-06T13:00:22.026Z,19.8
2017-05-06T13:01:34.323Z,19.85
2017-05-06T13:02:47.118Z,19.95
2017-05-06T13:03:59.912Z,19.9
2017-05-06T13:05:12.218Z,19.9
2017-05-06T13:06:25.001Z,19.9
2017-05-06T13:07:37.304Z,20.02
2017-05-06T13:08:49.616Z,20.08
2017-05-06T13:10:02.401Z,20.08
2017-05-06T13:11:14.231Z,19.94
2017-05-06T13:12:27.018Z,19.87
2017-05-06T13:13:39.813Z,19.89
2017-05-06T13:14:52.603Z,20.13
2017-05-06T13:16:05.396Z,20.1
2017-05-06T13:17:17.223Z,20.08
2017-05-06T13:18:30.014Z,20.04
2017-05-06T13:19:42.323Z,20.2
2017-05-06T13:20:55.112Z,20.3
2017-05-06T13:22:07.650Z,20.31
2017-05-06T13:23:20.478Z,20.33
2017-05-06T13:24:33.302Z,20.35
2017-05-06T13:25:45.639Z,20.44
2017-05-06T13:26:58.433Z,20.56
2017-05-06T13:28:10.771Z,20.51
2017-05-06T13:29:23.097Z,20.57
2017-05-06T13:30:36.170Z,20.5
2017-05-06T13:31:48.655Z,20.4
2017-05-06T13:33:01.253Z,20.5
2017-05-06T13:34:13.234Z,20.46
2017-05-06T13:35:26.044Z,20.46
2017-05-06T13:36:38.990Z,20.5
2017-05-06T13:37:51.291Z,20.48
2017-05-06T13:39:04.273Z,20.54
2017-05-06T13:40:17.053Z,20.58
2017-05-06T13:41:29.859Z,20.68
2017-05-06T13:42:42.644Z,20.66
2017-05-06T13:43:54.952Z,20.76
2017-05-06T13:45:07.742Z,20.81
2017-05-06T13:46:20.528Z,20.85
2017-05-06T13:47:32.837Z,20.88
2017-05-06T13:48:45.623Z,20.96
2017-05-06T13:49:57.926Z,21.12
2017-05-06T13:51:10.716Z,21.18
2017-05-06T13:52:23.023Z,21.22
2017-05-06T13:53:35.832Z,21.27
2017-05-06T13:54:48.884Z,21.36
2017-05-06T13:56:01.679Z,21.43
2017-05-06T13:57:14.046Z,21.61
2017-05-06T13:58:26.882Z,21.67
2017-05-06T13:59:39.666Z,21.91
2017-05-06T14:00:51.965Z,21.94
2017-05-06T14:02:04.747Z,21.83
2017-05-06T14:03:17.566Z,21.89
2017-05-06T14:04:30.353Z,21.93
2017-05-06T14:05:43.362Z,21.98
2017-05-06T14:06:56.151Z,22.08
2017-05-06T14:08:08.464Z,22.04
2017-05-06T14:09:20.305Z,22.02
2017-05-06T14:10:33.084Z,22.12
2017-05-06T14:11:45.914Z,22.09
2017-05-06T14:12:58.694Z,22.14
2017-05-06T14:14:11.479Z,21.98
2017-05-06T14:15:24.270Z,22.02
2017-05-06T14:16:36.770Z,22.02
2017-05-06T14:17:49.554Z,21.94
2017-05-06T14:19:02.335Z,21.96
2017-05-06T14:20:14.643Z,21.79
2017-05-06T14:21:27.421Z,21.86
2017-05-06T14:22:39.729Z,21.93
2017-05-06T14:23:52.515Z,22.02
2017-05-06T14:25:04.823Z,21.96
2017-05-06T14:26:17.605Z,22.11
2017-05-06T14:27:30.584Z,22.09
2017-05-06T14:28:43.370Z,22.14
2017-05-06T14:29:56.163Z,22.27
2017-05-06T14:31:08.947Z,22.27
2017-05-06T14:32:21.730Z,22.39
2017-05-06T14:33:34.514Z,22.44
2017-05-06T14:34:47.298Z,22.51
2017-05-06T14:35:59.599Z,22.57
2017-05-06T14:37:12.386Z,22.46
2017-05-06T14:38:25.168Z,22.46
2017-05-06T14:39:37.952Z,22.44
2017-05-06T14:40:50.742Z,22.48
2017-05-06T14:42:03.525Z,22.48
2017-05-06T14:43:16.307Z,22.56
2017-05-06T14:44:29.125Z,22.6
2017-05-06T14:45:41.907Z,22.44
2017-05-06T14:46:54.726Z,22.56
2017-05-06T14:48:07.507Z,22.48
2017-05-06T14:49:19.824Z,22.59
2017-05-06T14:50:32.608Z,22.63
2017-05-06T14:51:45.389Z,22.63
2017-05-06T14:52:58.173Z,22.61
2017-05-06T14:54:10.960Z,22.57
2017-05-06T14:55:23.952Z,22.46
2017-05-06T14:56:35.773Z,22.45
2017-05-06T14:57:48.559Z,22.54
2017-05-06T14:59:01.349Z,22.67
2017-05-06T15:00:13.652Z,22.66
2017-05-06T15:01:25.953Z,22.86
2017-05-06T15:02:38.739Z,22.88
2017-05-06T15:03:51.523Z,22.94
2017-05-06T15:05:04.315Z,22.99
2017-05-06T15:06:17.299Z,22.97
2017-05-06T15:07:30.081Z,23.09
2017-05-06T15:08:42.866Z,23.04
2017-05-06T15:09:55.653Z,23.11
2017-05-06T15:11:08.639Z,23.03
2017-05-06T15:12:21.424Z,23.06
2017-05-06T15:13:33.726Z,22.86
2017-05-06T15:14:46.513Z,22.81
2017-05-06T15:15:58.816Z,22.91
2017-05-06T15:17:11.608Z,22.86
2017-05-06T15:18:24.391Z,22.86
2017-05-06T15:19:36.692Z,22.88
2017-05-06T15:20:49.475Z,22.72
2017-05-06T15:22:02.265Z,22.59
2017-05-06T15:23:15.055Z,22.45
2017-05-06T15:24:27.359Z,22.39
2017-05-06T15:25:39.670Z,22.26
2017-05-06T15:26:52.455Z,22.08
2017-05-06T15:28:05.440Z,22.02
2017-05-06T15:29:18.225Z,22.05
2017-05-06T15:30:31.039Z,22.05
2017-05-06T15:31:43.820Z,21.93
2017-05-06T15:32:56.808Z,21.82
2017-05-06T15:34:09.111Z,21.89
2017-05-06T15:35:21.893Z,21.86
2017-05-06T15:36:34.678Z,21.79
2017-05-06T15:37:47.462Z,21.77
2017-05-06T15:39:00.251Z,21.73
2017-05-06T15:40:13.040Z,21.85